sensor_id;sensor_type;location;lat;lon;timestamp;temperature;humidity
46458;DHT22;32155;54.076;12.092;2022-09-25T00:00:39;13.00;99.90
46458;DHT22;32155;54.076;12.092;2022-09-25T00:03:07;12.90;99.90
46458;DHT22;32155;54.076;12.092;2022-09-25T00:05:35;12.80;99.90
46458;DHT22;32155;54.076;12.092;2022-09-25T00:08:01;12.70;99.90
46458;DHT22;32155;54.076;12.092;2022-09-25T00:10:27;12.70;99.90
46458;DHT22;32155;54.076;12.092;2022-09-25T00:12:54;12.60;99.90
46458;DHT22;32155;54.076;12.092;2022-09-25T00:15:19;12.70;99.90
46458;DHT22;32155;54.076;12.092;2022-09-25T00:17:45;12.70;99.90
46458;DHT22;32155;54.076;12.092;2022-09-25T00:20:10;12.80;99.90
46458;DHT22;32155;54.076;12.092;2022-09-25T00:22:36;12.80;99.90
46458;DHT22;32155;54.076;12.092;2022-09-25T00:25:02;12.80;99.90
46458;DHT22;32155;54.076;12.092;2022-09-25T00:27:30;12.80;99.90
46458;DHT22;32155;54.076;12.092;2022-09-25T00:29:56;12.80;99.90
46458;DHT22;32155;54.076;12.092;2022-09-25T00:32:23;12.80;99.90
46458;DHT22;32155;54.076;12.092;2022-09-25T00:34:49;12.80;99.90
46458;DHT22;32155;54.076;12.092;2022-09-25T00:37:15;12.80;99.90
46458;DHT22;32155;54.076;12.092;2022-09-25T00:39:40;12.80;99.90
46458;DHT22;32155;54.076;12.092;2022-09-25T00:42:06;12.80;99.90
46458;DHT22;32155;54.076;12.092;2022-09-25T00:47:12;12.80;99.90
46458;DHT22;32155;54.076;12.092;2022-09-25T00:49:39;12.80;99.90
46458;DHT22;32155;54.076;12.092;2022-09-25T00:52:09;12.70;99.90
46458;DHT22;32155;54.076;12.092;2022-09-25T00:54:38;12.80;99.90
46458;DHT22;32155;54.076;12.092;2022-09-25T00:57:07;12.80;99.90
46458;DHT22;32155;54.076;12.092;2022-09-25T00:59:36;12.80;99.90
46458;DHT22;32155;54.076;12.092;2022-09-25T01:02:02;12.80;99.90
46458;DHT22;32155;54.076;12.092;2022-09-25T01:04:29;12.80;99.90
46458;DHT22;32155;54.076;12.092;2022-09-25T01:06:59;12.80;99.90
46458;DHT22;32155;54.076;12.092;2022-09-25T01:09:25;12.80;99.90
46458;DHT22;32155;54.076;12.092;2022-09-25T01:11:53;13.00;99.90
46458;DHT22;32155;54.076;12.092;2022-09-25T01:14:19;13.10;99.90
46458;DHT22;32155;54.076;12.092;2022-09-25T01:16:53;13.00;99.90
46458;DHT22;32155;54.076;12.092;2022-09-25T01:19:25;13.00;99.90
46458;DHT22;32155;54.076;12.092;2022-09-25T01:24:42;12.80;99.90
46458;DHT22;32155;54.076;12.092;2022-09-25T01:27:27;12.70;99.90
46458;DHT22;32155;54.076;12.092;2022-09-25T01:30:16;12.70;99.90
46458;DHT22;32155;54.076;12.092;2022-09-25T01:40:36;12.70;99.90
46458;DHT22;32155;54.076;12.092;2022-09-25T01:43:06;12.70;99.90
46458;DHT22;32155;54.076;12.092;2022-09-25T01:45:53;12.80;99.90
46458;DHT22;32155;54.076;12.092;2022-09-25T01:48:25;12.80;99.90
46458;DHT22;32155;54.076;12.092;2022-09-25T01:51:01;12.80;99.90
46458;DHT22;32155;54.076;12.092;2022-09-25T01:53:30;12.90;99.90
46458;DHT22;32155;54.076;12.092;2022-09-25T01:56:00;12.90;99.90
46458;DHT22;32155;54.076;12.092;2022-09-25T01:58:34;12.80;99.90
46458;DHT22;32155;54.076;12.092;2022-09-25T02:01:25;12.80;99.90
46458;DHT22;32155;54.076;12.092;2022-09-25T02:03:49;12.80;99.90
46458;DHT22;32155;54.076;12.092;2022-09-25T02:06:21;12.70;99.90
46458;DHT22;32155;54.076;12.092;2022-09-25T02:08:51;12.80;99.90
46458;DHT22;32155;54.076;12.092;2022-09-25T02:11:18;12.80;99.90
46458;DHT22;32155;54.076;12.092;2022-09-25T02:13:52;12.80;99.90
46458;DHT22;32155;54.076;12.092;2022-09-25T02:16:36;12.80;99.90
46458;DHT22;32155;54.076;12.092;2022-09-25T02:19:02;12.70;99.90
46458;DHT22;32155;54.076;12.092;2022-09-25T02:21:53;12.70;99.90
46458;DHT22;32155;54.076;12.092;2022-09-25T02:24:33;12.80;99.90
46458;DHT22;32155;54.076;12.092;2022-09-25T02:26:59;12.90;99.90
46458;DHT22;32155;54.076;12.092;2022-09-25T02:29:25;12.90;99.90
46458;DHT22;32155;54.076;12.092;2022-09-25T02:31:53;12.90;99.90
46458;DHT22;32155;54.076;12.092;2022-09-25T02:34:20;12.90;99.90
46458;DHT22;32155;54.076;12.092;2022-09-25T02:36:45;12.80;99.90
46458;DHT22;32155;54.076;12.092;2022-09-25T02:39:12;12.80;99.90
46458;DHT22;32155;54.076;12.092;2022-09-25T02:41:45;12.80;99.90
46458;DHT22;32155;54.076;12.092;2022-09-25T02:54:34;12.90;99.90
46458;DHT22;32155;54.076;12.092;2022-09-25T03:00:02;12.80;99.90
46458;DHT22;32155;54.076;12.092;2022-09-25T03:02:29;12.80;99.90
46458;DHT22;32155;54.076;12.092;2022-09-25T03:04:56;12.80;99.90
46458;DHT22;32155;54.076;12.092;2022-09-25T03:07:22;12.90;99.90
46458;DHT22;32155;54.076;12.092;2022-09-25T03:09:50;13.10;99.90
46458;DHT22;32155;54.076;12.092;2022-09-25T03:12:17;12.90;99.90
46458;DHT22;32155;54.076;12.092;2022-09-25T03:14:42;12.80;99.90
46458;DHT22;32155;54.076;12.092;2022-09-25T03:17:08;12.80;99.90
46458;DHT22;32155;54.076;12.092;2022-09-25T03:19:34;12.80;99.90
46458;DHT22;32155;54.076;12.092;2022-09-25T03:22:02;12.70;99.90
46458;DHT22;32155;54.076;12.092;2022-09-25T03:24:30;12.80;99.90
46458;DHT22;32155;54.076;12.092;2022-09-25T03:26:56;12.80;99.90
46458;DHT22;32155;54.076;12.092;2022-09-25T03:29:21;12.70;99.90
46458;DHT22;32155;54.076;12.092;2022-09-25T03:31:47;12.70;99.90
46458;DHT22;32155;54.076;12.092;2022-09-25T03:34:13;12.70;99.90
46458;DHT22;32155;54.076;12.092;2022-09-25T03:36:39;12.80;99.90
46458;DHT22;32155;54.076;12.092;2022-09-25T03:39:05;12.70;99.90
46458;DHT22;32155;54.076;12.092;2022-09-25T03:41:32;12.70;99.90
46458;DHT22;32155;54.076;12.092;2022-09-25T03:43:58;12.70;99.90
46458;DHT22;32155;54.076;12.092;2022-09-25T03:46:27;12.80;99.90
46458;DHT22;32155;54.076;12.092;2022-09-25T03:48:54;12.90;99.90
46458;DHT22;32155;54.076;12.092;2022-09-25T03:51:20;12.80;99.90
46458;DHT22;32155;54.076;12.092;2022-09-25T03:53:46;12.70;99.90
46458;DHT22;32155;54.076;12.092;2022-09-25T03:56:12;12.70;99.90
46458;DHT22;32155;54.076;12.092;2022-09-25T03:58:38;12.70;99.90
46458;DHT22;32155;54.076;12.092;2022-09-25T04:01:04;12.70;99.90
46458;DHT22;32155;54.076;12.092;2022-09-25T04:03:31;12.80;99.90
46458;DHT22;32155;54.076;12.092;2022-09-25T04:05:57;12.80;99.90
46458;DHT22;32155;54.076;12.092;2022-09-25T04:08:23;12.80;99.90
46458;DHT22;32155;54.076;12.092;2022-09-25T04:10:52;12.90;99.90
46458;DHT22;32155;54.076;12.092;2022-09-25T04:13:21;12.80;99.90
46458;DHT22;32155;54.076;12.092;2022-09-25T04:15:48;12.80;99.90
46458;DHT22;32155;54.076;12.092;2022-09-25T04:18:14;12.80;99.90
46458;DHT22;32155;54.076;12.092;2022-09-25T04:20:42;12.80;99.90
46458;DHT22;32155;54.076;12.092;2022-09-25T04:23:07;12.90;99.90
46458;DHT22;32155;54.076;12.092;2022-09-25T04:25:33;12.80;99.90
46458;DHT22;32155;54.076;12.092;2022-09-25T04:28:01;12.70;99.90
46458;DHT22;32155;54.076;12.092;2022-09-25T04:30:27;12.80;99.90
46458;DHT22;32155;54.076;12.092;2022-09-25T04:32:53;12.60;99.90
46458;DHT22;32155;54.076;12.092;2022-09-25T04:35:37;12.70;99.90
46458;DHT22;32155;54.076;12.092;2022-09-25T04:38:03;12.60;99.90
46458;DHT22;32155;54.076;12.092;2022-09-25T04:40:28;12.70;99.90
46458;DHT22;32155;54.076;12.092;2022-09-25T04:42:55;12.60;99.90
46458;DHT22;32155;54.076;12.092;2022-09-25T04:45:21;12.60;99.90
46458;DHT22;32155;54.076;12.092;2022-09-25T04:47:46;12.80;99.90
46458;DHT22;32155;54.076;12.092;2022-09-25T04:50:12;12.80;99.90
46458;DHT22;32155;54.076;12.092;2022-09-25T04:52:37;12.70;99.90
46458;DHT22;32155;54.076;12.092;2022-09-25T04:55:05;12.70;99.90
46458;DHT22;32155;54.076;12.092;2022-09-25T04:57:31;12.70;99.90
46458;DHT22;32155;54.076;12.092;2022-09-25T05:00:00;12.90;99.90
46458;DHT22;32155;54.076;12.092;2022-09-25T05:02:26;12.70;99.90
46458;DHT22;32155;54.076;12.092;2022-09-25T05:04:52;12.70;99.90
46458;DHT22;32155;54.076;12.092;2022-09-25T05:07:17;12.60;99.90
46458;DHT22;32155;54.076;12.092;2022-09-25T05:09:43;12.50;99.90
46458;DHT22;32155;54.076;12.092;2022-09-25T05:12:08;12.50;99.90
46458;DHT22;32155;54.076;12.092;2022-09-25T05:14:34;12.50;99.90
46458;DHT22;32155;54.076;12.092;2022-09-25T05:16:59;12.50;99.90
46458;DHT22;32155;54.076;12.092;2022-09-25T05:19:25;12.50;99.90
46458;DHT22;32155;54.076;12.092;2022-09-25T05:21:53;12.50;99.90
46458;DHT22;32155;54.076;12.092;2022-09-25T05:24:19;12.50;99.90
46458;DHT22;32155;54.076;12.092;2022-09-25T05:26:44;12.50;99.90
46458;DHT22;32155;54.076;12.092;2022-09-25T05:29:10;12.60;99.90
46458;DHT22;32155;54.076;12.092;2022-09-25T05:31:38;12.70;99.90
46458;DHT22;32155;54.076;12.092;2022-09-25T05:34:07;12.60;99.90
46458;DHT22;32155;54.076;12.092;2022-09-25T05:36:33;12.60;99.90
46458;DHT22;32155;54.076;12.092;2022-09-25T05:38:58;12.70;99.90
46458;DHT22;32155;54.076;12.092;2022-09-25T05:41:24;12.60;99.90
46458;DHT22;32155;54.076;12.092;2022-09-25T05:43:50;12.60;99.90
46458;DHT22;32155;54.076;12.092;2022-09-25T05:46:16;12.70;99.90
46458;DHT22;32155;54.076;12.092;2022-09-25T05:48:41;12.70;99.90
46458;DHT22;32155;54.076;12.092;2022-09-25T05:51:07;12.70;99.90
46458;DHT22;32155;54.076;12.092;2022-09-25T05:53:35;12.80;99.90
46458;DHT22;32155;54.076;12.092;2022-09-25T05:56:01;12.90;99.90
46458;DHT22;32155;54.076;12.092;2022-09-25T05:58:28;12.90;99.90
46458;DHT22;32155;54.076;12.092;2022-09-25T06:00:54;13.00;99.90
46458;DHT22;32155;54.076;12.092;2022-09-25T06:03:20;13.00;99.90
46458;DHT22;32155;54.076;12.092;2022-09-25T06:05:46;13.10;99.90
46458;DHT22;32155;54.076;12.092;2022-09-25T06:08:12;13.10;99.90
46458;DHT22;32155;54.076;12.092;2022-09-25T06:10:38;13.20;99.90
46458;DHT22;32155;54.076;12.092;2022-09-25T06:13:04;13.20;99.90
46458;DHT22;32155;54.076;12.092;2022-09-25T06:15:34;13.20;99.90
46458;DHT22;32155;54.076;12.092;2022-09-25T06:18:05;13.20;99.90
46458;DHT22;32155;54.076;12.092;2022-09-25T06:20:33;13.30;99.90
46458;DHT22;32155;54.076;12.092;2022-09-25T06:22:59;13.20;99.90
46458;DHT22;32155;54.076;12.092;2022-09-25T06:25:28;13.30;99.90
46458;DHT22;32155;54.076;12.092;2022-09-25T06:27:57;13.30;99.90
46458;DHT22;32155;54.076;12.092;2022-09-25T06:30:25;13.30;99.90
46458;DHT22;32155;54.076;12.092;2022-09-25T06:35:34;13.40;99.90
46458;DHT22;32155;54.076;12.092;2022-09-25T06:38:00;13.50;99.90
46458;DHT22;32155;54.076;12.092;2022-09-25T06:40:26;13.40;99.90
46458;DHT22;32155;54.076;12.092;2022-09-25T06:43:01;13.50;99.90
46458;DHT22;32155;54.076;12.092;2022-09-25T06:45:28;13.50;99.90
46458;DHT22;32155;54.076;12.092;2022-09-25T06:47:58;13.60;99.90
46458;DHT22;32155;54.076;12.092;2022-09-25T06:50:24;13.80;99.90
46458;DHT22;32155;54.076;12.092;2022-09-25T06:52:59;13.90;99.90
46458;DHT22;32155;54.076;12.092;2022-09-25T06:55:28;14.10;99.90
46458;DHT22;32155;54.076;12.092;2022-09-25T06:57:53;14.10;99.90
46458;DHT22;32155;54.076;12.092;2022-09-25T07:00:21;14.10;99.90
46458;DHT22;32155;54.076;12.092;2022-09-25T07:02:47;14.00;99.90
46458;DHT22;32155;54.076;12.092;2022-09-25T07:05:31;14.00;99.90
46458;DHT22;32155;54.076;12.092;2022-09-25T07:07:57;14.00;99.90
46458;DHT22;32155;54.076;12.092;2022-09-25T07:10:22;14.10;99.90
46458;DHT22;32155;54.076;12.092;2022-09-25T07:12:48;14.20;99.90
46458;DHT22;32155;54.076;12.092;2022-09-25T07:15:13;14.10;99.90
46458;DHT22;32155;54.076;12.092;2022-09-25T07:17:43;14.10;99.90
46458;DHT22;32155;54.076;12.092;2022-09-25T07:20:09;14.20;99.90
46458;DHT22;32155;54.076;12.092;2022-09-25T07:22:37;14.20;99.90
46458;DHT22;32155;54.076;12.092;2022-09-25T07:25:03;14.00;99.90
46458;DHT22;32155;54.076;12.092;2022-09-25T07:27:28;14.00;99.90
46458;DHT22;32155;54.076;12.092;2022-09-25T07:29:54;14.10;99.90
46458;DHT22;32155;54.076;12.092;2022-09-25T07:32:19;14.10;99.90
46458;DHT22;32155;54.076;12.092;2022-09-25T07:34:45;14.00;99.90
46458;DHT22;32155;54.076;12.092;2022-09-25T07:37:15;14.00;99.90
46458;DHT22;32155;54.076;12.092;2022-09-25T07:39:43;13.90;99.90
46458;DHT22;32155;54.076;12.092;2022-09-25T07:42:09;13.90;99.90
46458;DHT22;32155;54.076;12.092;2022-09-25T07:44:37;14.00;99.90
46458;DHT22;32155;54.076;12.092;2022-09-25T07:47:04;14.10;99.90
46458;DHT22;32155;54.076;12.092;2022-09-25T07:49:31;14.20;99.90
46458;DHT22;32155;54.076;12.092;2022-09-25T07:51:57;14.30;99.90
46458;DHT22;32155;54.076;12.092;2022-09-25T07:54:25;14.30;99.90
46458;DHT22;32155;54.076;12.092;2022-09-25T07:56:51;14.30;99.90
46458;DHT22;32155;54.076;12.092;2022-09-25T07:59:16;14.30;99.90
46458;DHT22;32155;54.076;12.092;2022-09-25T08:01:42;14.30;99.90
46458;DHT22;32155;54.076;12.092;2022-09-25T08:04:07;14.30;99.90
46458;DHT22;32155;54.076;12.092;2022-09-25T08:06:33;14.30;99.90
46458;DHT22;32155;54.076;12.092;2022-09-25T08:08:59;14.40;99.90
46458;DHT22;32155;54.076;12.092;2022-09-25T08:11:25;14.40;99.90
46458;DHT22;32155;54.076;12.092;2022-09-25T08:13:52;14.30;99.90
46458;DHT22;32155;54.076;12.092;2022-09-25T08:16:17;14.40;99.90
46458;DHT22;32155;54.076;12.092;2022-09-25T08:18:45;14.40;99.90
46458;DHT22;32155;54.076;12.092;2022-09-25T08:21:11;14.30;99.90
46458;DHT22;32155;54.076;12.092;2022-09-25T08:23:39;14.30;99.90
46458;DHT22;32155;54.076;12.092;2022-09-25T08:26:05;14.20;99.90
46458;DHT22;32155;54.076;12.092;2022-09-25T08:28:31;14.20;99.90
46458;DHT22;32155;54.076;12.092;2022-09-25T08:30:57;14.20;99.90
46458;DHT22;32155;54.076;12.092;2022-09-25T08:33:23;14.20;99.90
46458;DHT22;32155;54.076;12.092;2022-09-25T08:35:55;14.00;99.90
46458;DHT22;32155;54.076;12.092;2022-09-25T08:38:21;14.30;99.90
46458;DHT22;32155;54.076;12.092;2022-09-25T08:41:37;14.40;99.90
46458;DHT22;32155;54.076;12.092;2022-09-25T08:43:35;14.40;99.90
46458;DHT22;32155;54.076;12.092;2022-09-25T08:46:02;14.40;99.90
46458;DHT22;32155;54.076;12.092;2022-09-25T08:48:52;14.40;99.90
46458;DHT22;32155;54.076;12.092;2022-09-25T08:51:28;14.50;99.90
46458;DHT22;32155;54.076;12.092;2022-09-25T08:53:56;14.60;99.90
46458;DHT22;32155;54.076;12.092;2022-09-25T08:56:24;14.70;99.90
46458;DHT22;32155;54.076;12.092;2022-09-25T08:59:18;14.50;99.90
46458;DHT22;32155;54.076;12.092;2022-09-25T09:01:55;14.60;99.90
46458;DHT22;32155;54.076;12.092;2022-09-25T09:06:52;14.80;99.90
46458;DHT22;32155;54.076;12.092;2022-09-25T09:09:33;14.90;99.90
46458;DHT22;32155;54.076;12.092;2022-09-25T09:17:39;15.10;99.90
46458;DHT22;32155;54.076;12.092;2022-09-25T09:20:12;15.10;99.90
46458;DHT22;32155;54.076;12.092;2022-09-25T09:22:39;15.10;99.90
46458;DHT22;32155;54.076;12.092;2022-09-25T09:49:03;15.50;99.90
46458;DHT22;32155;54.076;12.092;2022-09-25T09:51:31;15.70;99.90
46458;DHT22;32155;54.076;12.092;2022-09-25T09:53:59;15.70;99.90
46458;DHT22;32155;54.076;12.092;2022-09-25T09:56:29;15.70;99.90
46458;DHT22;32155;54.076;12.092;2022-09-25T09:58:56;15.60;99.90
46458;DHT22;32155;54.076;12.092;2022-09-25T10:01:23;15.70;99.90
46458;DHT22;32155;54.076;12.092;2022-09-25T10:03:50;15.70;99.90
46458;DHT22;32155;54.076;12.092;2022-09-25T10:06:19;15.70;99.90
46458;DHT22;32155;54.076;12.092;2022-09-25T10:08:47;15.80;99.90
46458;DHT22;32155;54.076;12.092;2022-09-25T10:11:13;15.70;99.90
46458;DHT22;32155;54.076;12.092;2022-09-25T10:13:40;15.60;99.90
46458;DHT22;32155;54.076;12.092;2022-09-25T10:16:08;15.30;99.90
46458;DHT22;32155;54.076;12.092;2022-09-25T10:26:28;15.10;99.90
46458;DHT22;32155;54.076;12.092;2022-09-25T10:28:55;15.20;99.90
46458;DHT22;32155;54.076;12.092;2022-09-25T10:31:21;15.30;99.90
46458;DHT22;32155;54.076;12.092;2022-09-25T10:36:33;15.30;99.90
46458;DHT22;32155;54.076;12.092;2022-09-25T10:38:59;15.30;99.90
46458;DHT22;32155;54.076;12.092;2022-09-25T10:41:25;15.30;99.90
46458;DHT22;32155;54.076;12.092;2022-09-25T10:43:54;15.30;99.90
46458;DHT22;32155;54.076;12.092;2022-09-25T10:46:27;15.30;99.90
46458;DHT22;32155;54.076;12.092;2022-09-25T10:49:26;15.20;99.90
46458;DHT22;32155;54.076;12.092;2022-09-25T10:52:11;15.30;99.90
46458;DHT22;32155;54.076;12.092;2022-09-25T10:54:38;15.40;99.90
46458;DHT22;32155;54.076;12.092;2022-09-25T10:57:33;15.50;99.90
46458;DHT22;32155;54.076;12.092;2022-09-25T11:00:24;15.50;99.90
46458;DHT22;32155;54.076;12.092;2022-09-25T11:02:53;15.60;99.90
46458;DHT22;32155;54.076;12.092;2022-09-25T11:05:21;15.60;99.90
46458;DHT22;32155;54.076;12.092;2022-09-25T11:07:48;15.70;99.90
46458;DHT22;32155;54.076;12.092;2022-09-25T11:10:20;15.80;99.90
46458;DHT22;32155;54.076;12.092;2022-09-25T11:12:46;16.10;99.90
46458;DHT22;32155;54.076;12.092;2022-09-25T11:15:15;16.40;99.90
46458;DHT22;32155;54.076;12.092;2022-09-25T11:17:41;16.80;99.90
46458;DHT22;32155;54.076;12.092;2022-09-25T11:22:40;17.20;99.90
46458;DHT22;32155;54.076;12.092;2022-09-25T11:27:43;18.50;99.90
46458;DHT22;32155;54.076;12.092;2022-09-25T11:37:55;20.90;99.90
46458;DHT22;32155;54.076;12.092;2022-09-25T11:43:14;20.90;99.90
46458;DHT22;32155;54.076;12.092;2022-09-25T11:45:46;20.00;99.90
46458;DHT22;32155;54.076;12.092;2022-09-25T11:48:25;19.30;99.90
46458;DHT22;32155;54.076;12.092;2022-09-25T11:51:12;19.00;99.90
46458;DHT22;32155;54.076;12.092;2022-09-25T11:53:55;18.50;99.90
46458;DHT22;32155;54.076;12.092;2022-09-25T12:01:24;18.30;99.90
46458;DHT22;32155;54.076;12.092;2022-09-25T12:11:56;17.70;99.90
46458;DHT22;32155;54.076;12.092;2022-09-25T12:14:47;18.20;99.90
46458;DHT22;32155;54.076;12.092;2022-09-25T12:28:05;17.20;99.90
46458;DHT22;32155;54.076;12.092;2022-09-25T12:33:32;17.00;99.90
46458;DHT22;32155;54.076;12.092;2022-09-25T12:41:23;16.80;99.90
46458;DHT22;32155;54.076;12.092;2022-09-25T12:43:59;16.80;99.90
46458;DHT22;32155;54.076;12.092;2022-09-25T12:47:01;16.90;99.90
46458;DHT22;32155;54.076;12.092;2022-09-25T12:49:26;16.70;99.90
46458;DHT22;32155;54.076;12.092;2022-09-25T12:51:55;16.50;99.90
46458;DHT22;32155;54.076;12.092;2022-09-25T12:57:30;16.30;99.90
46458;DHT22;32155;54.076;12.092;2022-09-25T12:59:37;16.30;99.90
46458;DHT22;32155;54.076;12.092;2022-09-25T13:12:44;15.60;99.90
46458;DHT22;32155;54.076;12.092;2022-09-25T13:15:11;15.60;99.90
46458;DHT22;32155;54.076;12.092;2022-09-25T13:17:38;15.50;99.90
46458;DHT22;32155;54.076;12.092;2022-09-25T13:22:48;15.40;99.90
46458;DHT22;32155;54.076;12.092;2022-09-25T13:25:14;15.50;99.90
46458;DHT22;32155;54.076;12.092;2022-09-25T13:27:43;15.40;99.90
46458;DHT22;32155;54.076;12.092;2022-09-25T13:30:26;15.40;99.90
46458;DHT22;32155;54.076;12.092;2022-09-25T13:32:53;15.50;99.90
46458;DHT22;32155;54.076;12.092;2022-09-25T13:35:20;15.60;99.90
46458;DHT22;32155;54.076;12.092;2022-09-25T13:37:47;15.70;99.90
46458;DHT22;32155;54.076;12.092;2022-09-25T13:40:23;15.70;99.90
46458;DHT22;32155;54.076;12.092;2022-09-25T13:48:36;15.30;99.90
46458;DHT22;32155;54.076;12.092;2022-09-25T13:53:55;15.30;99.90
46458;DHT22;32155;54.076;12.092;2022-09-25T14:01:38;15.50;99.90
46458;DHT22;32155;54.076;12.092;2022-09-25T14:04:15;15.60;99.90
46458;DHT22;32155;54.076;12.092;2022-09-25T14:06:47;15.60;99.90
46458;DHT22;32155;54.076;12.092;2022-09-25T14:09:22;15.60;99.90
46458;DHT22;32155;54.076;12.092;2022-09-25T14:14:26;15.40;99.90
46458;DHT22;32155;54.076;12.092;2022-09-25T14:16:54;15.40;99.90
46458;DHT22;32155;54.076;12.092;2022-09-25T14:19:27;15.30;99.90
46458;DHT22;32155;54.076;12.092;2022-09-25T14:21:54;15.20;99.90
46458;DHT22;32155;54.076;12.092;2022-09-25T14:26:48;15.20;99.90
46458;DHT22;32155;54.076;12.092;2022-09-25T14:29:18;15.20;99.90
46458;DHT22;32155;54.076;12.092;2022-09-25T14:32:05;15.10;99.90
46458;DHT22;32155;54.076;12.092;2022-09-25T14:34:49;15.10;99.90
46458;DHT22;32155;54.076;12.092;2022-09-25T14:37:24;15.10;99.90
46458;DHT22;32155;54.076;12.092;2022-09-25T14:40:13;15.00;99.90
46458;DHT22;32155;54.076;12.092;2022-09-25T14:45:32;14.90;99.90
46458;DHT22;32155;54.076;12.092;2022-09-25T14:48:02;14.80;99.90
46458;DHT22;32155;54.076;12.092;2022-09-25T14:50:33;14.70;99.90
46458;DHT22;32155;54.076;12.092;2022-09-25T14:53:01;14.70;99.90
46458;DHT22;32155;54.076;12.092;2022-09-25T14:55:41;14.70;99.90
46458;DHT22;32155;54.076;12.092;2022-09-25T14:58:18;14.70;99.90
46458;DHT22;32155;54.076;12.092;2022-09-25T15:00:47;14.80;99.90
46458;DHT22;32155;54.076;12.092;2022-09-25T15:03:14;14.90;99.90
46458;DHT22;32155;54.076;12.092;2022-09-25T15:05:44;15.00;99.90
46458;DHT22;32155;54.076;12.092;2022-09-25T15:08:21;14.90;99.90
46458;DHT22;32155;54.076;12.092;2022-09-25T15:10:48;14.90;99.90
46458;DHT22;32155;54.076;12.092;2022-09-25T15:13:14;14.90;99.90
46458;DHT22;32155;54.076;12.092;2022-09-25T15:15:40;15.00;99.90
46458;DHT22;32155;54.076;12.092;2022-09-25T15:18:26;15.00;99.90
46458;DHT22;32155;54.076;12.092;2022-09-25T15:20:52;15.00;99.90
46458;DHT22;32155;54.076;12.092;2022-09-25T15:23:18;15.10;99.90
46458;DHT22;32155;54.076;12.092;2022-09-25T15:25:46;15.20;99.90
46458;DHT22;32155;54.076;12.092;2022-09-25T15:28:16;15.20;99.90
46458;DHT22;32155;54.076;12.092;2022-09-25T15:30:42;15.10;99.90
46458;DHT22;32155;54.076;12.092;2022-09-25T15:33:26;15.20;99.90
46458;DHT22;32155;54.076;12.092;2022-09-25T15:35:57;15.10;99.90
46458;DHT22;32155;54.076;12.092;2022-09-25T15:38:30;15.10;99.90
46458;DHT22;32155;54.076;12.092;2022-09-25T15:40:56;15.10;99.90
46458;DHT22;32155;54.076;12.092;2022-09-25T15:43:24;15.10;99.90
46458;DHT22;32155;54.076;12.092;2022-09-25T15:45:54;15.10;99.90
46458;DHT22;32155;54.076;12.092;2022-09-25T15:48:26;15.10;99.90
46458;DHT22;32155;54.076;12.092;2022-09-25T15:50:54;15.10;99.90
46458;DHT22;32155;54.076;12.092;2022-09-25T15:53:21;15.00;99.90
46458;DHT22;32155;54.076;12.092;2022-09-25T15:55:48;15.00;99.90
46458;DHT22;32155;54.076;12.092;2022-09-25T15:58:14;15.00;99.90
46458;DHT22;32155;54.076;12.092;2022-09-25T16:00:58;14.90;99.90
46458;DHT22;32155;54.076;12.092;2022-09-25T16:03:48;15.00;99.90
46458;DHT22;32155;54.076;12.092;2022-09-25T16:06:37;15.00;99.90
46458;DHT22;32155;54.076;12.092;2022-09-25T16:09:09;14.90;99.90
46458;DHT22;32155;54.076;12.092;2022-09-25T16:11:42;14.80;99.90
46458;DHT22;32155;54.076;12.092;2022-09-25T16:14:19;14.70;99.90
46458;DHT22;32155;54.076;12.092;2022-09-25T16:16:46;14.80;99.90
46458;DHT22;32155;54.076;12.092;2022-09-25T16:19:31;14.90;99.90
46458;DHT22;32155;54.076;12.092;2022-09-25T16:21:57;14.70;99.90
46458;DHT22;32155;54.076;12.092;2022-09-25T16:24:27;14.80;99.90
46458;DHT22;32155;54.076;12.092;2022-09-25T16:26:57;14.80;99.90
46458;DHT22;32155;54.076;12.092;2022-09-25T16:29:25;14.70;99.90
46458;DHT22;32155;54.076;12.092;2022-09-25T16:31:51;14.60;99.90
46458;DHT22;32155;54.076;12.092;2022-09-25T16:34:22;14.50;99.90
46458;DHT22;32155;54.076;12.092;2022-09-25T16:36:48;14.50;99.90
46458;DHT22;32155;54.076;12.092;2022-09-25T16:39:22;14.60;99.90
46458;DHT22;32155;54.076;12.092;2022-09-25T16:41:51;14.60;99.90
46458;DHT22;32155;54.076;12.092;2022-09-25T16:44:18;14.50;99.90
46458;DHT22;32155;54.076;12.092;2022-09-25T16:49:16;14.40;99.90
46458;DHT22;32155;54.076;12.092;2022-09-25T16:51:44;14.30;99.90
46458;DHT22;32155;54.076;12.092;2022-09-25T16:54:13;14.20;99.90
46458;DHT22;32155;54.076;12.092;2022-09-25T16:56:40;14.30;99.90
46458;DHT22;32155;54.076;12.092;2022-09-25T16:59:17;14.40;99.90
46458;DHT22;32155;54.076;12.092;2022-09-25T17:01:44;14.40;99.90
46458;DHT22;32155;54.076;12.092;2022-09-25T17:04:10;14.30;99.90
46458;DHT22;32155;54.076;12.092;2022-09-25T17:06:35;14.20;99.90
46458;DHT22;32155;54.076;12.092;2022-09-25T17:09:11;14.10;99.90
46458;DHT22;32155;54.076;12.092;2022-09-25T17:11:37;14.10;99.90
46458;DHT22;32155;54.076;12.092;2022-09-25T17:14:04;14.10;99.90
46458;DHT22;32155;54.076;12.092;2022-09-25T17:16:31;14.00;99.90
46458;DHT22;32155;54.076;12.092;2022-09-25T17:18:56;14.00;99.90
46458;DHT22;32155;54.076;12.092;2022-09-25T17:21:22;14.10;99.90
46458;DHT22;32155;54.076;12.092;2022-09-25T17:23:48;14.00;99.90
46458;DHT22;32155;54.076;12.092;2022-09-25T17:28:39;13.90;99.90
46458;DHT22;32155;54.076;12.092;2022-09-25T17:31:04;13.90;99.90
46458;DHT22;32155;54.076;12.092;2022-09-25T17:33:30;13.90;99.90
46458;DHT22;32155;54.076;12.092;2022-09-25T17:36:00;13.90;99.90
46458;DHT22;32155;54.076;12.092;2022-09-25T17:38:28;13.80;99.90
46458;DHT22;32155;54.076;12.092;2022-09-25T17:40:54;13.80;99.90
46458;DHT22;32155;54.076;12.092;2022-09-25T17:43:20;13.80;99.90
46458;DHT22;32155;54.076;12.092;2022-09-25T17:45:47;13.70;99.90
46458;DHT22;32155;54.076;12.092;2022-09-25T17:48:16;13.70;99.90
46458;DHT22;32155;54.076;12.092;2022-09-25T17:51:01;13.80;99.90
46458;DHT22;32155;54.076;12.092;2022-09-25T17:53:31;13.80;99.90
46458;DHT22;32155;54.076;12.092;2022-09-25T17:55:57;13.80;99.90
46458;DHT22;32155;54.076;12.092;2022-09-25T17:58:25;13.80;99.90
46458;DHT22;32155;54.076;12.092;2022-09-25T18:00:51;13.80;99.90
46458;DHT22;32155;54.076;12.092;2022-09-25T18:03:17;13.90;99.90
46458;DHT22;32155;54.076;12.092;2022-09-25T18:05:43;13.90;99.90
46458;DHT22;32155;54.076;12.092;2022-09-25T18:08:12;13.90;99.90
46458;DHT22;32155;54.076;12.092;2022-09-25T18:10:40;13.90;99.90